createdAt,value
2019-05-12T00:00:28.819Z,88.00
2019-05-12T00:02:59.285Z,88.10
2019-05-12T00:05:28.070Z,88.10
2019-05-12T00:07:58.870Z,88.40
2019-05-12T00:10:28.330Z,88.40
2019-05-12T00:15:27.959Z,88.40
2019-05-12T00:17:58.630Z,88.20
2019-05-12T00:20:28.292Z,88.30
2019-05-12T00:25:58.679Z,88.30
2019-05-12T00:28:28.364Z,88.30
2019-05-12T00:30:58.037Z,88.30
2019-05-12T00:33:28.252Z,88.50
2019-05-12T00:35:58.742Z,88.50
2019-05-12T00:38:27.860Z,88.50
2019-05-12T00:43:28.094Z,88.60
2019-05-12T00:45:58.525Z,88.80
2019-05-12T00:50:58.412Z,89.20
2019-05-12T00:53:39.344Z,89.20
2019-05-12T00:55:57.940Z,89.40
2019-05-12T01:00:59.318Z,89.60
2019-05-12T01:03:27.983Z,89.50
2019-05-12T01:08:28.064Z,89.60
2019-05-12T01:10:58.282Z,89.70
2019-05-12T01:13:27.971Z,89.70
2019-05-12T01:15:58.689Z,89.80
2019-05-12T01:18:28.070Z,89.60
2019-05-12T01:20:58.324Z,89.70
2019-05-12T01:23:28.139Z,89.70
2019-05-12T01:28:27.846Z,90.10
2019-05-12T01:30:58.358Z,89.90
2019-05-12T01:33:27.730Z,89.90
2019-05-12T01:35:58.483Z,89.90
2019-05-12T01:38:28.581Z,90.10
2019-05-12T01:40:58.378Z,90.10
2019-05-12T01:43:27.785Z,90.20
2019-05-12T01:45:58.634Z,90.10
2019-05-12T01:48:28.556Z,90.10
2019-05-12T01:50:57.979Z,90.10
2019-05-12T01:53:28.615Z,90.10
2019-05-12T01:55:58.494Z,90.10
2019-05-12T01:58:27.805Z,90.30
2019-05-12T02:03:28.364Z,90.30
2019-05-12T02:06:00.869Z,90.10
2019-05-12T02:08:39.700Z,90.30
2019-05-12T02:11:25.616Z,90.30
2019-05-12T02:13:54.015Z,90.30
2019-05-12T02:16:22.449Z,90.20
2019-05-12T02:18:50.865Z,90.30
2019-05-12T02:23:47.869Z,90.40
2019-05-12T02:31:15.999Z,90.50
2019-05-12T02:33:44.726Z,90.30
2019-05-12T02:38:45.238Z,90.30
2019-05-12T02:41:15.445Z,90.40
2019-05-12T02:43:45.688Z,90.30
2019-05-12T02:46:15.602Z,90.40
2019-05-12T02:53:46.856Z,90.70
2019-05-12T02:58:45.376Z,90.50
2019-05-12T03:01:15.378Z,90.70
2019-05-12T03:03:45.133Z,90.70
2019-05-12T03:06:15.107Z,90.60
2019-05-12T03:08:44.957Z,90.70
2019-05-12T03:11:14.810Z,90.60
2019-05-12T03:13:44.841Z,90.70
2019-05-12T03:23:44.671Z,90.70
2019-05-12T03:28:44.597Z,90.70
2019-05-12T03:31:22.471Z,90.70
2019-05-12T03:33:52.259Z,90.70
2019-05-12T03:36:17.868Z,90.80
2019-05-12T03:38:44.771Z,91.00
2019-05-12T03:43:44.825Z,91.00
2019-05-12T03:46:15.304Z,91.20
2019-05-12T03:48:45.369Z,91.10
2019-05-12T03:51:15.496Z,91.00
2019-05-12T03:53:45.411Z,90.90
2019-05-12T03:56:15.075Z,90.90
2019-05-12T03:58:45.298Z,90.90
2019-05-12T04:01:15.017Z,90.90
2019-05-12T04:08:45.609Z,90.90
2019-05-12T04:11:14.738Z,90.90
2019-05-12T04:13:45.149Z,90.90
2019-05-12T04:16:16.352Z,90.70
2019-05-12T04:18:45.140Z,90.90
2019-05-12T04:21:15.649Z,91.10
2019-05-12T04:26:16.849Z,90.70
2019-05-12T04:31:15.526Z,90.90
2019-05-12T04:33:45.187Z,90.90
2019-05-12T04:36:14.820Z,90.80
2019-05-12T04:38:45.008Z,90.90
2019-05-12T04:41:14.524Z,90.90
2019-05-12T04:43:44.789Z,90.60
2019-05-12T04:46:14.508Z,90.70
2019-05-12T04:53:44.898Z,90.40
2019-05-12T04:56:19.875Z,90.40
2019-05-12T04:59:04.985Z,90.30
2019-05-12T05:01:34.673Z,90.50
2019-05-12T05:04:05.446Z,90.40
2019-05-12T05:06:34.224Z,90.40
2019-05-12T05:09:05.132Z,90.30
2019-05-12T05:11:34.555Z,90.30
2019-05-12T05:14:04.253Z,90.30
2019-05-12T05:19:03.757Z,90.50
2019-05-12T05:21:34.232Z,90.50
2019-05-12T05:26:34.904Z,90.30
2019-05-12T05:29:04.297Z,90.30
2019-05-12T05:31:33.751Z,90.10
2019-05-12T05:34:04.719Z,90.30
2019-05-12T05:36:34.550Z,90.30
2019-05-12T05:39:05.818Z,90.10
2019-05-12T05:41:34.614Z,90.10
2019-05-12T05:46:33.657Z,89.90
2019-05-12T05:49:04.051Z,90.00
2019-05-12T05:51:33.522Z,89.60
2019-05-12T05:54:03.995Z,89.80
2019-05-12T05:56:42.481Z,89.60
2019-05-12T05:59:04.668Z,89.50
2019-05-12T06:06:34.121Z,89.70
2019-05-12T06:09:03.732Z,89.70
2019-05-12T06:11:34.453Z,89.70
2019-05-12T06:14:11.110Z,89.40
2019-05-12T06:16:34.083Z,89.50
2019-05-12T06:19:03.439Z,89.80
2019-05-12T06:21:36.237Z,89.50
2019-05-12T06:24:03.540Z,89.90
2019-05-12T06:26:35.371Z,89.90
2019-05-12T06:31:33.382Z,89.80
2019-05-12T06:34:06.211Z,89.60
2019-05-12T06:36:34.034Z,89.60
2019-05-12T06:39:04.351Z,89.40
2019-05-12T06:44:03.743Z,89.80
2019-05-12T06:46:34.208Z,89.10
2019-05-12T06:49:10.190Z,89.70
2019-05-12T06:54:24.617Z,90.00
2019-05-12T06:56:57.852Z,89.90
2019-05-12T06:59:23.737Z,89.80
2019-05-12T07:01:58.724Z,89.40
2019-05-12T07:04:24.057Z,89.40
2019-05-12T07:06:56.066Z,89.50
2019-05-12T07:09:27.926Z,89.60
2019-05-12T07:12:01.838Z,89.20
2019-05-12T07:14:27.100Z,89.00
2019-05-12T07:17:01.699Z,89.40
2019-05-12T07:19:25.591Z,89.20
2019-05-12T07:21:58.219Z,89.50
2019-05-12T07:24:24.446Z,89.50
2019-05-12T07:26:54.771Z,89.40
2019-05-12T07:29:23.940Z,89.20
2019-05-12T07:31:53.734Z,89.10
2019-05-12T07:34:24.044Z,89.80
2019-05-12T07:36:55.567Z,89.90
2019-05-12T07:39:24.773Z,89.80
2019-05-12T07:41:54.946Z,89.80
2019-05-12T07:44:26.121Z,89.50
2019-05-12T07:46:54.538Z,89.50
2019-05-12T07:49:34.526Z,89.20
2019-05-12T07:51:54.179Z,89.20
2019-05-12T07:54:23.608Z,89.10
2019-05-12T07:56:53.976Z,88.80
2019-05-12T07:59:26.663Z,88.80
2019-05-12T08:01:54.915Z,88.90
2019-05-12T08:04:23.915Z,88.90
2019-05-12T08:06:53.842Z,89.00
2019-05-12T08:09:24.187Z,88.90
2019-05-12T08:11:54.096Z,89.10
2019-05-12T08:14:28.850Z,89.10
2019-05-12T08:16:54.286Z,88.60
2019-05-12T08:19:25.727Z,88.60
2019-05-12T08:21:53.750Z,88.60
2019-05-12T08:24:23.624Z,88.50
2019-05-12T08:26:59.556Z,88.50
2019-05-12T08:29:24.360Z,88.70
2019-05-12T08:31:54.868Z,88.60
2019-05-12T08:34:23.756Z,88.60
2019-05-12T08:36:56.381Z,88.60
2019-05-12T08:39:25.820Z,88.60
2019-05-12T08:41:53.552Z,88.60
2019-05-12T08:44:25.004Z,88.70
2019-05-12T08:46:56.375Z,88.70
2019-05-12T08:49:23.584Z,88.60
2019-05-12T08:51:57.866Z,88.50
2019-05-12T08:56:59.301Z,88.50
2019-05-12T08:59:26.632Z,88.70
2019-05-12T09:01:54.119Z,88.70
2019-05-12T09:06:56.717Z,88.70
2019-05-12T09:09:33.724Z,88.80
2019-05-12T09:12:03.604Z,88.70
2019-05-12T09:14:35.597Z,88.50
2019-05-12T09:19:33.179Z,88.60
2019-05-12T09:22:04.916Z,88.70
2019-05-12T09:24:33.757Z,88.50
2019-05-12T09:27:07.022Z,88.50
2019-05-12T09:29:34.058Z,88.50
2019-05-12T09:32:05.475Z,88.60
2019-05-12T09:34:33.549Z,88.60
2019-05-12T09:37:04.042Z,88.70
2019-05-12T09:39:34.049Z,88.40
2019-05-12T09:42:03.793Z,88.60
2019-05-12T09:44:34.102Z,88.80
2019-05-12T09:47:04.078Z,89.00
2019-05-12T09:49:39.075Z,89.00
2019-05-12T09:52:03.702Z,89.10
2019-05-12T09:54:35.401Z,89.10
2019-05-12T09:57:04.411Z,89.10
2019-05-12T09:59:33.599Z,89.00
2019-05-12T10:02:03.759Z,89.10
2019-05-12T10:04:33.107Z,89.00
2019-05-12T10:07:03.747Z,88.60
2019-05-12T10:09:33.520Z,88.60
2019-05-12T10:14:31.846Z,88.70
2019-05-12T10:17:00.225Z,88.60
2019-05-12T10:21:59.472Z,88.50
2019-05-12T10:26:54.920Z,88.60
2019-05-12T10:29:24.400Z,88.40
2019-05-12T10:31:53.663Z,88.60
2019-05-12T10:34:23.977Z,88.60
2019-05-12T10:36:53.738Z,88.60
2019-05-12T10:39:24.485Z,88.60
2019-05-12T10:41:54.559Z,88.40
2019-05-12T10:44:23.141Z,88.30
2019-05-12T10:46:53.824Z,88.30
2019-05-12T10:49:23.357Z,88.00
2019-05-12T10:51:53.811Z,88.00
2019-05-12T10:54:24.102Z,88.00
2019-05-12T10:56:54.549Z,88.10
2019-05-12T10:59:32.340Z,88.10
2019-05-12T11:06:53.778Z,88.40
2019-05-12T11:09:29.431Z,88.60
2019-05-12T11:14:26.583Z,88.30
2019-05-12T11:16:54.225Z,88.30
2019-05-12T11:19:22.766Z,88.30
2019-05-12T11:24:22.109Z,88.30
2019-05-12T11:26:50.505Z,88.40
2019-05-12T11:29:18.920Z,88.20
2019-05-12T11:31:47.384Z,88.40
2019-05-12T11:34:15.821Z,88.50
2019-05-12T11:39:14.124Z,88.20
2019-05-12T11:41:44.318Z,88.10
2019-05-12T11:44:13.202Z,88.30
2019-05-12T11:46:44.142Z,88.10
2019-05-12T11:49:13.834Z,88.20
2019-05-12T11:51:41.982Z,88.00
2019-05-12T11:54:10.894Z,88.10
2019-05-12T11:56:40.480Z,88.30
2019-05-12T11:59:10.088Z,88.40
2019-05-12T12:09:09.173Z,88.70
2019-05-12T12:11:37.152Z,88.80
2019-05-12T12:14:10.239Z,89.00
2019-05-12T12:16:35.702Z,89.10
2019-05-12T12:19:05.826Z,89.10
2019-05-12T12:21:35.107Z,88.80
2019-05-12T12:24:03.988Z,88.90
2019-05-12T12:26:37.035Z,88.90
2019-05-12T12:29:03.454Z,88.60
2019-05-12T12:31:37.315Z,88.40
2019-05-12T12:36:34.051Z,88.20
2019-05-12T12:39:04.087Z,88.50
2019-05-12T12:41:34.038Z,88.50
2019-05-12T12:44:04.429Z,88.40
2019-05-12T12:51:34.132Z,88.80
2019-05-12T12:54:03.284Z,88.80
2019-05-12T12:56:33.984Z,88.90
2019-05-12T12:59:10.196Z,89.20
2019-05-12T13:01:33.508Z,89.50
2019-05-12T13:06:34.421Z,89.20
2019-05-12T13:09:07.895Z,89.10
2019-05-12T13:11:34.754Z,89.40
2019-05-12T13:14:04.121Z,89.20
2019-05-12T13:16:34.361Z,89.20
2019-05-12T13:21:33.596Z,89.50
2019-05-12T13:24:03.659Z,89.50
2019-05-12T13:26:32.325Z,89.50
2019-05-12T13:29:00.737Z,89.60
2019-05-12T13:36:29.671Z,88.10
2019-05-12T13:38:55.504Z,87.80
2019-05-12T13:41:24.044Z,88.10
2019-05-12T13:43:55.901Z,87.60
2019-05-12T13:46:23.879Z,87.00
2019-05-12T13:48:57.763Z,87.10
2019-05-12T13:53:52.449Z,87.30
2019-05-12T13:56:27.455Z,87.10
2019-05-12T13:58:51.072Z,87.20
2019-05-12T14:01:20.887Z,87.40
2019-05-12T14:03:50.922Z,88.00
2019-05-12T14:06:23.030Z,88.40
2019-05-12T14:08:49.750Z,88.40
2019-05-12T14:11:18.866Z,88.80
2019-05-12T14:13:47.546Z,88.80
2019-05-12T14:16:15.960Z,88.90
2019-05-12T14:18:44.369Z,89.20
2019-05-12T14:21:24.476Z,89.00
2019-05-12T14:26:24.237Z,88.80
2019-05-12T14:28:53.315Z,88.80
2019-05-12T14:31:30.131Z,88.50
2019-05-12T14:33:54.006Z,88.00
2019-05-12T14:36:26.571Z,88.30
2019-05-12T14:41:26.502Z,88.20
2019-05-12T14:44:01.440Z,88.50
2019-05-12T14:46:24.238Z,88.20
2019-05-12T14:51:24.408Z,88.10
2019-05-12T14:53:53.546Z,88.50
2019-05-12T14:56:23.377Z,88.20
2019-05-12T14:58:56.588Z,88.50
2019-05-12T15:01:23.871Z,88.80
2019-05-12T15:03:53.535Z,88.90
2019-05-12T15:06:25.673Z,88.90
2019-05-12T15:08:54.103Z,88.80
2019-05-12T15:11:23.733Z,88.80
2019-05-12T15:13:54.175Z,88.80
2019-05-12T15:16:31.757Z,88.70
2019-05-12T15:21:31.182Z,88.40
2019-05-12T15:23:56.905Z,88.40
2019-05-12T15:26:25.512Z,88.40
2019-05-12T15:28:54.384Z,88.40
2019-05-12T15:31:23.540Z,88.40
2019-05-12T15:33:52.275Z,88.50
2019-05-12T15:36:20.676Z,88.50
2019-05-12T15:38:54.486Z,88.50
2019-05-12T15:41:20.205Z,88.50
2019-05-12T15:43:49.378Z,88.40
2019-05-12T15:46:18.687Z,88.60
2019-05-12T15:48:47.089Z,88.50
2019-05-12T15:51:15.485Z,88.40
2019-05-12T15:53:44.551Z,88.60
2019-05-12T15:56:16.524Z,88.50
2019-05-12T15:58:44.190Z,88.40
2019-05-12T16:01:13.904Z,88.30
2019-05-12T16:03:43.840Z,88.00
2019-05-12T16:06:14.954Z,88.20
2019-05-12T16:08:42.820Z,88.50
2019-05-12T16:11:13.809Z,88.70
2019-05-12T16:13:44.846Z,88.70
2019-05-12T16:16:14.004Z,88.50
2019-05-12T16:18:46.702Z,88.50
2019-05-12T16:21:11.732Z,88.50
2019-05-12T16:23:40.154Z,88.50
2019-05-12T16:26:12.652Z,88.70
2019-05-12T16:28:38.784Z,88.60
2019-05-12T16:31:08.638Z,88.70
2019-05-12T16:33:37.498Z,88.60
2019-05-12T16:36:11.303Z,88.80
2019-05-12T16:38:36.050Z,88.80
2019-05-12T16:41:04.480Z,89.00
2019-05-12T16:43:34.972Z,89.50
2019-05-12T16:46:04.419Z,89.60
2019-05-12T16:48:35.542Z,89.90
2019-05-12T16:51:03.374Z,90.20
2019-05-12T16:53:33.949Z,90.10
2019-05-12T16:56:04.119Z,89.90
2019-05-12T16:58:35.152Z,90.10
2019-05-12T17:01:03.738Z,90.00
2019-05-12T17:03:34.177Z,90.20
2019-05-12T17:06:03.498Z,90.30
2019-05-12T17:08:34.278Z,90.40
2019-05-12T17:11:23.116Z,90.10
2019-05-12T17:13:34.059Z,90.10
2019-05-12T17:16:04.282Z,89.40
2019-05-12T17:18:33.995Z,90.10
2019-05-12T17:21:04.294Z,90.30
2019-05-12T17:23:32.808Z,90.50
2019-05-12T17:26:20.582Z,90.40
2019-05-12T17:36:17.556Z,90.10
2019-05-12T17:38:44.045Z,90.10
2019-05-12T17:41:15.516Z,90.10
2019-05-12T17:43:54.742Z,90.10
2019-05-12T17:46:17.977Z,90.20
2019-05-12T17:48:44.939Z,90.20
2019-05-12T17:51:13.790Z,90.10
2019-05-12T17:53:43.375Z,90.10
2019-05-12T17:56:13.962Z,90.10
2019-05-12T18:01:14.578Z,90.10
2019-05-12T18:03:48.703Z,90.00
2019-05-12T18:06:14.133Z,90.10
2019-05-12T18:08:44.345Z,90.30
2019-05-12T18:11:15.802Z,90.30
2019-05-12T18:13:43.116Z,90.40
2019-05-12T18:16:19.785Z,90.40
2019-05-12T18:18:43.545Z,90.30
2019-05-12T18:21:21.204Z,90.20
2019-05-12T18:23:43.638Z,90.20
2019-05-12T18:26:16.040Z,90.30
2019-05-12T18:28:44.264Z,90.10
2019-05-12T18:31:13.844Z,90.40
2019-05-12T18:33:51.363Z,90.30
2019-05-12T18:36:14.381Z,90.70
2019-05-12T18:38:44.784Z,90.80
2019-05-12T18:41:13.949Z,90.60
2019-05-12T18:43:43.548Z,90.80
2019-05-12T18:46:14.061Z,90.80
2019-05-12T18:48:42.347Z,90.70
2019-05-12T18:51:14.722Z,90.80
2019-05-12T18:53:40.882Z,90.70
2019-05-12T18:56:10.240Z,90.60
2019-05-12T18:58:39.504Z,90.50
2019-05-12T19:01:07.981Z,90.40
2019-05-12T19:03:47.248Z,90.20
2019-05-12T19:06:06.513Z,90.00
2019-05-12T19:08:34.919Z,90.10
2019-05-12T19:11:17.968Z,89.90
2019-05-12T19:13:51.891Z,89.90
2019-05-12T19:16:16.760Z,89.90
2019-05-12T19:21:16.628Z,90.00
2019-05-12T19:23:45.077Z,90.00
2019-05-12T19:26:13.704Z,90.10
2019-05-12T19:28:52.472Z,90.10
2019-05-12T19:31:14.151Z,90.10
2019-05-12T19:33:52.991Z,90.10
2019-05-12T19:36:13.628Z,90.20
2019-05-12T19:38:43.905Z,90.50
2019-05-12T19:41:14.000Z,90.70
2019-05-12T19:43:45.345Z,90.50
2019-05-12T19:46:13.631Z,90.50
2019-05-12T19:48:49.078Z,90.60
2019-05-12T19:51:21.968Z,90.50
2019-05-12T19:53:43.797Z,90.40
2019-05-12T19:56:14.225Z,90.30
2019-05-12T19:58:43.846Z,90.40
2019-05-12T20:01:14.031Z,90.50
2019-05-12T20:03:43.959Z,90.50
2019-05-12T20:06:13.556Z,90.30
2019-05-12T20:11:14.288Z,90.30
2019-05-12T20:13:44.307Z,90.20
2019-05-12T20:16:21.319Z,90.30
2019-05-12T20:18:48.864Z,90.30
2019-05-12T20:21:13.753Z,90.30
2019-05-12T20:26:14.376Z,90.10
2019-05-12T20:28:50.135Z,90.10
2019-05-12T20:31:13.891Z,90.10
2019-05-12T20:33:43.462Z,90.20
2019-05-12T20:36:14.127Z,90.20
2019-05-12T20:38:44.450Z,90.30
2019-05-12T20:41:21.884Z,90.20
2019-05-12T20:43:44.272Z,90.40
2019-05-12T20:46:21.511Z,90.20
2019-05-12T20:48:44.635Z,90.30
2019-05-12T20:51:15.347Z,90.40
2019-05-12T20:53:43.711Z,90.50
2019-05-12T20:56:18.527Z,90.50
2019-05-12T20:58:45.854Z,90.40
2019-05-12T21:01:13.925Z,90.50
2019-05-12T21:03:46.264Z,90.40
2019-05-12T21:06:14.574Z,90.20
2019-05-12T21:08:46.594Z,90.10
2019-05-12T21:13:43.941Z,90.30
2019-05-12T21:18:47.917Z,90.20
2019-05-12T21:21:14.150Z,90.30
2019-05-12T21:23:45.596Z,90.20
2019-05-12T21:26:12.547Z,90.10
2019-05-12T21:28:46.166Z,90.20
2019-05-12T21:31:11.086Z,90.40
2019-05-12T21:33:41.621Z,90.40
2019-05-12T21:36:15.495Z,90.30
2019-05-12T21:38:39.745Z,90.10
2019-05-12T21:41:10.041Z,90.20
2019-05-12T21:43:38.286Z,90.20
2019-05-12T21:46:12.351Z,90.10
2019-05-12T21:48:36.821Z,90.10
2019-05-12T21:51:09.890Z,90.20
2019-05-12T21:53:35.358Z,90.10
2019-05-12T21:58:33.550Z,90.20
2019-05-12T22:01:05.220Z,90.20
2019-05-12T22:03:33.769Z,90.30
2019-05-12T22:06:12.156Z,90.50
2019-05-12T22:08:33.836Z,90.60
2019-05-12T22:11:09.146Z,90.30
2019-05-12T22:16:00.701Z,90.30
2019-05-12T22:18:29.103Z,90.30
2019-05-12T22:21:01.667Z,90.20
2019-05-12T22:23:28.321Z,90.10
2019-05-12T22:30:54.604Z,90.20
2019-05-12T22:33:24.188Z,90.40
2019-05-12T22:36:02.913Z,90.40
2019-05-12T22:38:24.823Z,90.40
2019-05-12T22:40:56.059Z,90.40
2019-05-12T22:43:23.865Z,90.40
2019-05-12T22:45:54.522Z,90.40
2019-05-12T22:48:22.496Z,90.40
2019-05-12T22:50:50.907Z,90.50
2019-05-12T22:53:24.671Z,90.30
2019-05-12T22:58:22.423Z,90.30
2019-05-12T23:00:54.767Z,90.30
2019-05-12T23:03:18.004Z,90.60
2019-05-12T23:08:16.196Z,90.50
2019-05-12T23:10:51.392Z,90.50
2019-05-12T23:15:47.606Z,90.60
2019-05-12T23:23:15.378Z,90.60
2019-05-12T23:28:10.650Z,90.50
2019-05-12T23:30:43.921Z,90.80
2019-05-12T23:33:09.596Z,90.60
2019-05-12T23:35:39.649Z,90.60
2019-05-12T23:43:06.165Z,90.50
2019-05-12T23:45:34.569Z,90.60
2019-05-12T23:48:03.885Z,90.50
2019-05-12T23:50:32.701Z,90.40
2019-05-12T23:55:48.630Z,90.60
2019-05-12T23:58:17.031Z,90.70
